Time;durP1;ratioP1;P1;durP2;ratioP2;P2;SDS_P1;SDS_P2;PMS_P1;PMS_P2;Temp;Humidity;BMP_temperature;BMP_pressure;BME280_temperature;BME280_humidity;BME280_pressure;Samples;Min_cycle;Max_cycle;Signal;HPM_P1;HPM_P2
2022/06/16 00:00:59;;;;;;;3.95;2.35;;;;;;;;;;4969530;28;20043;-72
2022/06/16 00:03:24;;;;;;;3.72;2.70;;;;;;;;;;4970268;28;20109;-71
2022/06/16 00:05:50;;;;;;;7.47;2.40;;;;;;;;;;4973370;28;20463;-72
2022/06/16 00:08:18;;;;;;;5.20;2.40;;;;;;;;;;4972390;28;20019;-71
2022/06/16 00:13:31;;;;;;;3.90;2.40;;;;;;;;;;4973949;28;20042;-72
2022/06/16 00:15:58;;;;;;;3.72;2.50;;;;;;;;;;4972777;28;20118;-70
2022/06/16 00:18:23;;;;;;;6.38;2.70;;;;;;;;;;4972245;28;20031;-72
2022/06/16 00:20:49;;;;;;;4.07;2.55;;;;;;;;;;4972660;28;20030;-72
2022/06/16 00:23:14;;;;;;;9.25;2.80;;;;;;;;;;4989685;28;20027;-71
2022/06/16 00:25:40;;;;;;;3.72;2.63;;;;;;;;;;4992892;28;20030;-71
2022/06/16 00:28:05;;;;;;;5.43;2.90;;;;;;;;;;4993127;28;20463;-71
2022/06/16 00:30:31;;;;;;;3.58;2.90;;;;;;;;;;4990903;28;20108;-71
2022/06/16 00:32:56;;;;;;;4.65;2.72;;;;;;;;;;4992877;28;20022;-71
2022/06/16 00:35:22;;;;;;;4.45;2.80;;;;;;;;;;4992612;28;20129;-71
2022/06/16 00:37:47;;;;;;;8.55;2.88;;;;;;;;;;4993174;28;20025;-72
2022/06/16 00:40:14;;;;;;;3.92;2.55;;;;;;;;;;4992841;28;20068;-72
2022/06/16 00:42:43;;;;;;;5.43;2.72;;;;;;;;;;4991243;28;20042;-72
2022/06/16 00:45:43;;;;;;;2.72;2.53;;;;;;;;;;4991403;28;20037;-71
2022/06/16 00:48:30;;;;;;;6.78;3.15;;;;;;;;;;4991476;28;20049;-71
2022/06/16 00:51:20;;;;;;;5.68;2.70;;;;;;;;;;4991152;28;20113;-71
2022/06/16 00:53:46;;;;;;;3.60;2.55;;;;;;;;;;5000157;28;20498;-70
2022/06/16 00:56:19;;;;;;;7.25;2.67;;;;;;;;;;4990910;28;20030;-71
2022/06/16 00:58:47;;;;;;;3.50;2.35;;;;;;;;;;5007283;28;20096;-71
2022/06/16 01:01:17;;;;;;;6.45;2.83;;;;;;;;;;4990897;28;20254;-71
2022/06/16 01:06:28;;;;;;;4.15;2.70;;;;;;;;;;4992232;28;20030;-71
2022/06/16 01:09:00;;;;;;;3.58;3.28;;;;;;;;;;4992909;28;20489;-71
2022/06/16 01:14:59;;;;;;;3.70;2.50;;;;;;;;;;4991820;28;20077;-71
2022/06/16 01:17:43;;;;;;;6.10;2.97;;;;;;;;;;4990864;28;20034;-73
2022/06/16 01:20:09;;;;;;;5.43;3.00;;;;;;;;;;4992257;28;20037;-73
2022/06/16 01:22:54;;;;;;;4.20;2.70;;;;;;;;;;4980691;28;20127;-74
2022/06/16 01:25:44;;;;;;;4.40;2.90;;;;;;;;;;4971083;28;20026;-72
2022/06/16 01:28:18;;;;;;;3.20;2.83;;;;;;;;;;4971156;28;20023;-74
2022/06/16 01:30:55;;;;;;;3.20;2.90;;;;;;;;;;4954673;28;20490;-74
2022/06/16 01:33:40;;;;;;;4.78;2.53;;;;;;;;;;4970996;28;20058;-73
2022/06/16 01:36:17;;;;;;;5.75;3.35;;;;;;;;;;4972488;28;20022;-74
2022/06/16 01:38:49;;;;;;;5.22;3.45;;;;;;;;;;4972156;28;20027;-74
2022/06/16 01:41:42;;;;;;;5.30;3.00;;;;;;;;;;4970945;28;20058;-73
2022/06/16 01:44:15;;;;;;;5.25;2.60;;;;;;;;;;4970775;28;20027;-74
2022/06/16 01:46:43;;;;;;;5.50;2.83;;;;;;;;;;4955094;28;20042;-74
2022/06/16 01:49:21;;;;;;;3.53;2.83;;;;;;;;;;4970580;28;20487;-74
2022/06/16 01:51:56;;;;;;;5.13;3.13;;;;;;;;;;4970518;28;20369;-74
2022/06/16 01:54:27;;;;;;;3.92;3.22;;;;;;;;;;4971961;28;20027;-74
2022/06/16 01:56:59;;;;;;;3.08;2.67;;;;;;;;;;4970978;28;20235;-74
2022/06/16 01:59:38;;;;;;;3.92;2.90;;;;;;;;;;4970365;28;20053;-74
2022/06/16 02:02:13;;;;;;;8.73;3.10;;;;;;;;;;4956379;28;20026;-74
2022/06/16 02:04:54;;;;;;;4.65;2.88;;;;;;;;;;4970610;28;20114;-76
2022/06/16 02:07:26;;;;;;;4.05;3.20;;;;;;;;;;4971773;28;20037;-74
2022/06/16 02:09:56;;;;;;;3.95;2.92;;;;;;;;;;4970207;28;20031;-74
2022/06/16 02:15:20;;;;;;;7.80;3.75;;;;;;;;;;4971685;28;20042;-74
2022/06/16 02:17:46;;;;;;;6.60;3.63;;;;;;;;;;4971391;28;20026;-75
2022/06/16 02:20:11;;;;;;;5.15;3.05;;;;;;;;;;4971543;28;20031;-74
2022/06/16 02:22:37;;;;;;;5.53;3.25;;;;;;;;;;4981592;28;20033;-73
2022/06/16 02:25:02;;;;;;;4.25;3.20;;;;;;;;;;4990680;28;20060;-75
2022/06/16 02:27:28;;;;;;;5.63;3.50;;;;;;;;;;4989884;28;20034;-74
2022/06/16 02:29:53;;;;;;;7.18;3.70;;;;;;;;;;4989224;28;20054;-74
2022/06/16 02:32:47;;;;;;;7.18;3.83;;;;;;;;;;4990498;28;20451;-74
2022/06/16 02:35:31;;;;;;;6.13;3.30;;;;;;;;;;4989216;28;20033;-74
2022/06/16 02:38:14;;;;;;;10.23;3.22;;;;;;;;;;4990486;28;20105;-73
2022/06/16 02:41:10;;;;;;;6.25;3.88;;;;;;;;;;4988886;28;20188;-74
2022/06/16 02:43:56;;;;;;;4.78;3.03;;;;;;;;;;4993848;28;20371;-74
2022/06/16 02:46:40;;;;;;;6.28;3.40;;;;;;;;;;4989380;28;20489;-74
2022/06/16 02:49:23;;;;;;;4.57;2.85;;;;;;;;;;4990657;28;20462;-74
2022/06/16 02:51:51;;;;;;;7.90;4.00;;;;;;;;;;4990722;28;20073;-74
2022/06/16 02:54:24;;;;;;;6.20;3.60;;;;;;;;;;4988983;28;20065;-73
2022/06/16 02:57:09;;;;;;;5.32;3.53;;;;;;;;;;4988837;28;20030;-73
2022/06/16 02:59:56;;;;;;;5.65;3.47;;;;;;;;;;4990263;28;20058;-75
2022/06/16 03:02:24;;;;;;;7.70;3.55;;;;;;;;;;4990463;28;20554;-74
2022/06/16 03:05:00;;;;;;;6.75;3.50;;;;;;;;;;4991205;28;20109;-73
2022/06/16 03:07:28;;;;;;;7.57;4.22;;;;;;;;;;4991282;28;20034;-72
2022/06/16 03:09:54;;;;;;;7.82;3.50;;;;;;;;;;4991645;28;20026;-74
2022/06/16 03:12:19;;;;;;;4.15;3.33;;;;;;;;;;4990693;28;20470;-74
2022/06/16 03:14:45;;;;;;;5.30;3.65;;;;;;;;;;4989471;28;20037;-74
2022/06/16 03:17:12;;;;;;;7.38;4.85;;;;;;;;;;4989116;28;20065;-74
2022/06/16 03:19:39;;;;;;;17.40;4.63;;;;;;;;;;4988430;28;20433;-73
2022/06/16 03:22:06;;;;;;;11.93;5.18;;;;;;;;;;4988593;28;20121;-74
2022/06/16 03:24:32;;;;;;;9.35;3.55;;;;;;;;;;4988364;28;20081;-74
2022/06/16 03:26:58;;;;;;;6.28;3.80;;;;;;;;;;4988635;28;20038;-73
2022/06/16 03:29:24;;;;;;;7.32;4.00;;;;;;;;;;4988589;28;20113;-74
2022/06/16 03:31:49;;;;;;;7.45;3.70;;;;;;;;;;4988153;28;20034;-73
2022/06/16 03:34:15;;;;;;;8.02;4.10;;;;;;;;;;4990095;28;20053;-75
2022/06/16 03:36:42;;;;;;;6.35;3.80;;;;;;;;;;4988349;28;20030;-73
2022/06/16 03:39:08;;;;;;;8.02;4.07;;;;;;;;;;4991088;28;20096;-73
2022/06/16 03:41:34;;;;;;;10.90;5.57;;;;;;;;;;4992069;28;20034;-74
2022/06/16 03:43:59;;;;;;;6.03;3.85;;;;;;;;;;4993923;28;20049;-73
2022/06/16 03:46:25;;;;;;;5.07;3.70;;;;;;;;;;4992377;28;20026;-74
2022/06/16 03:48:51;;;;;;;9.95;5.10;;;;;;;;;;4992405;28;20041;-74
2022/06/16 03:51:18;;;;;;;6.55;4.03;;;;;;;;;;4993525;28;20026;-74
2022/06/16 03:53:44;;;;;;;6.90;5.10;;;;;;;;;;4993590;28;20030;-74
2022/06/16 03:56:11;;;;;;;9.77;4.10;;;;;;;;;;4991901;28;20049;-74
2022/06/16 03:58:39;;;;;;;6.03;3.95;;;;;;;;;;5008152;28;20065;-73
2022/06/16 04:01:04;;;;;;;8.30;4.22;;;;;;;;;;4993244;28;20037;-73
2022/06/16 04:06:16;;;;;;;7.75;4.57;;;;;;;;;;4993577;28;20045;-74
2022/06/16 04:08:42;;;;;;;8.07;4.40;;;;;;;;;;4992865;28;20282;-73
2022/06/16 04:13:53;;;;;;;7.10;4.47;;;;;;;;;;4993312;28;20041;-74
2022/06/16 04:16:19;;;;;;;8.18;3.97;;;;;;;;;;4991852;28;20030;-73
2022/06/16 04:18:45;;;;;;;10.38;4.97;;;;;;;;;;4991653;28;20093;-74
2022/06/16 04:21:12;;;;;;;9.32;4.00;;;;;;;;;;4993821;28;20120;-74
2022/06/16 04:23:38;;;;;;;11.27;4.72;;;;;;;;;;4989972;28;20229;-72
2022/06/16 04:26:04;;;;;;;12.65;6.28;;;;;;;;;;4940823;28;20126;-72
2022/06/16 04:28:30;;;;;;;9.23;4.28;;;;;;;;;;4974371;28;20066;-74
2022/06/16 04:30:55;;;;;;;9.95;4.60;;;;;;;;;;4974179;28;20055;-72
2022/06/16 04:33:21;;;;;;;7.07;4.70;;;;;;;;;;4973492;28;20030;-72
2022/06/16 04:35:46;;;;;;;11.65;6.22;;;;;;;;;;4973737;28;20034;-72
2022/06/16 04:38:12;;;;;;;11.10;7.68;;;;;;;;;;4972076;28;20498;-73
2022/06/16 04:40:37;;;;;;;16.33;9.77;;;;;;;;;;4972080;28;20030;-72
2022/06/16 04:43:04;;;;;;;6.57;5.30;;;;;;;;;;4973859;28;20113;-71
2022/06/16 04:45:30;;;;;;;6.20;4.28;;;;;;;;;;4971890;28;20392;-72
2022/06/16 04:47:57;;;;;;;8.43;4.82;;;;;;;;;;4971633;28;20055;-73
2022/06/16 04:50:23;;;;;;;7.72;4.63;;;;;;;;;;4972373;28;20081;-73
2022/06/16 04:52:48;;;;;;;7.20;4.90;;;;;;;;;;4973126;28;20035;-72
2022/06/16 04:55:16;;;;;;;5.28;4.18;;;;;;;;;;4971977;28;20154;-73
2022/06/16 04:57:41;;;;;;;5.22;3.35;;;;;;;;;;4939196;28;20035;-72
2022/06/16 05:00:10;;;;;;;5.85;4.63;;;;;;;;;;4971553;28;20058;-72
2022/06/16 05:02:35;;;;;;;8.32;4.53;;;;;;;;;;4971266;28;20038;-72
2022/06/16 05:05:01;;;;;;;14.68;5.93;;;;;;;;;;4971612;28;20369;-73
2022/06/16 05:07:26;;;;;;;12.05;4.50;;;;;;;;;;4971280;28;20033;-74
2022/06/16 05:09:52;;;;;;;7.07;4.50;;;;;;;;;;4972459;28;20061;-73
2022/06/16 05:12:19;;;;;;;11.00;4.57;;;;;;;;;;4971262;28;20146;-72
2022/06/16 05:14:44;;;;;;;4.93;4.30;;;;;;;;;;4971145;28;20038;-73
2022/06/16 05:17:10;;;;;;;9.30;5.03;;;;;;;;;;4972030;28;20077;-73
2022/06/16 05:19:35;;;;;;;8.90;4.88;;;;;;;;;;4989366;28;20101;-72
2022/06/16 05:22:05;;;;;;;8.57;3.90;;;;;;;;;;4978264;28;20085;-73
2022/06/16 05:24:31;;;;;;;13.75;6.22;;;;;;;;;;4991740;28;20097;-73
2022/06/16 05:26:56;;;;;;;8.98;5.05;;;;;;;;;;4990787;28;20422;-72
2022/06/16 05:29:22;;;;;;;17.20;5.05;;;;;;;;;;4985530;28;20074;-72
2022/06/16 05:31:47;;;;;;;8.98;5.03;;;;;;;;;;4984108;28;20026;-73
2022/06/16 05:34:13;;;;;;;11.73;4.93;;;;;;;;;;4998243;28;20422;-72
2022/06/16 05:36:39;;;;;;;12.98;4.85;;;;;;;;;;4988598;28;20038;-74
2022/06/16 05:39:04;;;;;;;8.00;4.97;;;;;;;;;;4981413;28;20545;-74
2022/06/16 05:41:36;;;;;;;11.73;4.88;;;;;;;;;;4993718;28;20429;-72
2022/06/16 05:44:02;;;;;;;4.75;4.25;;;;;;;;;;4986991;28;20053;-73
2022/06/16 05:46:28;;;;;;;8.48;5.13;;;;;;;;;;4999687;28;20065;-71
2022/06/16 05:48:53;;;;;;;5.90;4.45;;;;;;;;;;4983882;28;20018;-72
2022/06/16 05:51:22;;;;;;;5.93;4.30;;;;;;;;;;4978910;28;20030;-72
2022/06/16 05:53:48;;;;;;;8.10;4.20;;;;;;;;;;5001658;28;20045;-73
2022/06/16 05:56:13;;;;;;;4.75;4.15;;;;;;;;;;4989675;28;20038;-73
2022/06/16 05:58:39;;;;;;;9.50;5.22;;;;;;;;;;4978259;28;20026;-72
2022/06/16 06:01:05;;;;;;;9.88;4.47;;;;;;;;;;4973058;28;20545;-73
2022/06/16 06:03:31;;;;;;;6.07;4.30;;;;;;;;;;4983709;28;20030;-73
2022/06/16 06:05:59;;;;;;;11.00;4.75;;;;;;;;;;4978176;28;20031;-72
2022/06/16 06:16:54;;;;;;;9.60;4.97;;;;;;;;;;4986405;28;20044;-73
2022/06/16 06:19:25;;;;;;;8.55;4.72;;;;;;;;;;4982738;28;20030;-73
2022/06/16 06:21:58;;;;;;;7.85;4.50;;;;;;;;;;4973438;28;20038;-74
2022/06/16 06:24:24;;;;;;;9.60;5.78;;;;;;;;;;4994140;28;20207;-73
2022/06/16 06:26:49;;;;;;;9.50;4.35;;;;;;;;;;4998460;28;20041;-74
2022/06/16 06:29:15;;;;;;;8.55;4.30;;;;;;;;;;4983432;28;20042;-74
2022/06/16 06:31:40;;;;;;;6.05;3.65;;;;;;;;;;4997135;28;20057;-71
2022/06/16 06:34:07;;;;;;;9.65;4.40;;;;;;;;;;4977545;28;20109;-74
2022/06/16 06:36:32;;;;;;;11.65;5.00;;;;;;;;;;4983092;28;20033;-74
2022/06/16 06:38:58;;;;;;;6.00;3.70;;;;;;;;;;4982615;28;20042;-74
2022/06/16 06:41:24;;;;;;;10.48;4.97;;;;;;;;;;4979011;28;20088;-74
2022/06/16 06:43:49;;;;;;;8.18;4.22;;;;;;;;;;4977352;28;20042;-72
2022/06/16 06:46:15;;;;;;;15.75;4.43;;;;;;;;;;4983129;28;20114;-74
2022/06/16 06:48:40;;;;;;;9.52;3.95;;;;;;;;;;4983030;28;20449;-75
2022/06/16 06:51:06;;;;;;;7.63;3.95;;;;;;;;;;4983906;28;20033;-74
2022/06/16 06:53:39;;;;;;;7.32;4.13;;;;;;;;;;4975167;28;20409;-75
2022/06/16 06:56:05;;;;;;;8.02;4.45;;;;;;;;;;4982529;28;20038;-72
2022/06/16 06:58:33;;;;;;;29.70;5.95;;;;;;;;;;4979357;28;20034;-72
2022/06/16 07:01:01;;;;;;;28.17;5.68;;;;;;;;;;4985959;28;20050;-73
2022/06/16 07:03:29;;;;;;;10.48;4.13;;;;;;;;;;4978570;28;20068;-74
2022/06/16 07:05:55;;;;;;;25.23;6.68;;;;;;;;;;4981332;28;20184;-74
2022/06/16 07:08:21;;;;;;;15.68;4.97;;;;;;;;;;4981704;28;20023;-73
2022/06/16 07:10:47;;;;;;;6.55;4.45;;;;;;;;;;4979689;28;20046;-71
2022/06/16 07:13:14;;;;;;;13.80;4.82;;;;;;;;;;4991716;28;20034;-74
2022/06/16 07:15:40;;;;;;;8.07;4.28;;;;;;;;;;4976568;28;20061;-73
2022/06/16 07:18:07;;;;;;;7.57;4.35;;;;;;;;;;4996105;28;20792;-74
2022/06/16 07:20:33;;;;;;;12.77;4.90;;;;;;;;;;4980771;28;20125;-73
2022/06/16 07:22:59;;;;;;;7.03;3.90;;;;;;;;;;4987715;28;20655;-74
2022/06/16 07:25:25;;;;;;;11.20;3.70;;;;;;;;;;4980931;28;20093;-74
2022/06/16 07:27:53;;;;;;;5.13;3.30;;;;;;;;;;4982760;28;20042;-75
2022/06/16 07:30:20;;;;;;;8.57;3.95;;;;;;;;;;4997341;28;20120;-75
2022/06/16 07:32:47;;;;;;;7.22;3.30;;;;;;;;;;4995633;28;20466;-74
2022/06/16 07:35:17;;;;;;;6.40;3.40;;;;;;;;;;4982119;28;20027;-75
2022/06/16 07:37:44;;;;;;;4.93;2.90;;;;;;;;;;4995003;28;20038;-74
2022/06/16 07:40:14;;;;;;;6.88;2.88;;;;;;;;;;4977972;28;20228;-74
2022/06/16 07:42:40;;;;;;;9.07;4.20;;;;;;;;;;4982161;28;20030;-73
2022/06/16 07:45:07;;;;;;;5.40;3.15;;;;;;;;;;4985394;28;20118;-73
2022/06/16 07:47:34;;;;;;;9.18;3.63;;;;;;;;;;5005345;28;20053;-74
2022/06/16 07:50:08;;;;;;;5.93;3.03;;;;;;;;;;4985686;28;20041;-73
2022/06/16 07:52:34;;;;;;;3.55;3.25;;;;;;;;;;4994037;28;20030;-73
2022/06/16 07:55:02;;;;;;;6.32;3.35;;;;;;;;;;4991859;28;20196;-73
2022/06/16 07:57:31;;;;;;;5.47;3.25;;;;;;;;;;4978993;28;20042;-72
2022/06/16 07:59:57;;;;;;;5.90;3.17;;;;;;;;;;4977309;28;20596;-75
2022/06/16 08:02:23;;;;;;;5.50;3.50;;;;;;;;;;4975465;28;20116;-73
2022/06/16 08:04:49;;;;;;;7.10;3.50;;;;;;;;;;4979481;28;20470;-75
2022/06/16 08:07:15;;;;;;;4.43;3.53;;;;;;;;;;5000148;28;20034;-72
2022/06/16 08:09:40;;;;;;;7.72;4.18;;;;;;;;;;4993177;28;20538;-74
2022/06/16 08:12:08;;;;;;;8.00;3.83;;;;;;;;;;4997252;28;20034;-75
2022/06/16 08:14:40;;;;;;;7.38;3.47;;;;;;;;;;4977963;28;20870;-75
2022/06/16 08:17:24;;;;;;;10.30;3.47;;;;;;;;;;4997555;28;20042;-74
2022/06/16 08:19:51;;;;;;;55.85;9.02;;;;;;;;;;4980105;28;20026;-75
2022/06/16 08:22:18;;;;;;;4.95;3.42;;;;;;;;;;4969648;28;20042;-76
2022/06/16 08:24:45;;;;;;;6.60;2.92;;;;;;;;;;4974994;28;20039;-75
2022/06/16 08:27:11;;;;;;;7.53;3.30;;;;;;;;;;4983763;28;20076;-76
2022/06/16 08:29:40;;;;;;;10.50;4.30;;;;;;;;;;4984019;28;20082;-75
2022/06/16 08:32:06;;;;;;;12.93;4.05;;;;;;;;;;4981362;28;20052;-75
2022/06/16 08:34:33;;;;;;;9.07;3.42;;;;;;;;;;4982315;28;20022;-73
2022/06/16 08:36:59;;;;;;;8.75;4.18;;;;;;;;;;4998962;28;20089;-74
2022/06/16 08:39:24;;;;;;;6.60;3.03;;;;;;;;;;4998524;28;20062;-74
2022/06/16 08:41:57;;;;;;;3.92;2.50;;;;;;;;;;4972577;28;20043;-75
2022/06/16 08:44:30;;;;;;;6.80;3.03;;;;;;;;;;4979351;28;20092;-76
2022/06/16 08:47:18;;;;;;;8.50;3.70;;;;;;;;;;4980555;28;20113;-76
2022/06/16 08:50:06;;;;;;;10.25;2.85;;;;;;;;;;4982589;28;20410;-75
2022/06/16 08:52:40;;;;;;;3.90;3.08;;;;;;;;;;4981680;28;20031;-76
2022/06/16 08:55:47;;;;;;;3.25;2.78;;;;;;;;;;4970717;28;20562;-76
2022/06/16 08:58:25;;;;;;;7.18;2.75;;;;;;;;;;5021061;28;20069;-75
2022/06/16 09:01:20;;;;;;;11.80;4.68;;;;;;;;;;4981713;28;20042;-75
2022/06/16 09:03:51;;;;;;;9.82;3.60;;;;;;;;;;4991457;28;20037;-74
2022/06/16 09:06:46;;;;;;;7.15;4.00;;;;;;;;;;4984451;28;20038;-76
2022/06/16 09:10:18;;;;;;;8.43;3.15;;;;;;;;;;4984364;28;20501;-75
2022/06/16 09:13:10;;;;;;;12.00;4.97;;;;;;;;;;4984410;28;20829;-75
2022/06/16 09:15:48;;;;;;;5.65;3.70;;;;;;;;;;4985278;28;20034;-75
2022/06/16 09:18:17;;;;;;;8.82;4.03;;;;;;;;;;5004311;28;20038;-76
2022/06/16 09:20:45;;;;;;;5.78;3.03;;;;;;;;;;4990343;28;20030;-76
2022/06/16 09:23:35;;;;;;;16.65;4.18;;;;;;;;;;4990870;28;20058;-76
2022/06/16 09:26:10;;;;;;;14.82;3.65;;;;;;;;;;4990588;28;20102;-74
2022/06/16 09:28:54;;;;;;;7.85;4.32;;;;;;;;;;4990427;28;20014;-73
2022/06/16 09:31:30;;;;;;;8.95;3.60;;;;;;;;;;4983456;28;20189;-76
2022/06/16 09:34:07;;;;;;;5.85;3.13;;;;;;;;;;4987960;28;20023;-75
2022/06/16 09:36:39;;;;;;;10.40;3.90;;;;;;;;;;4985193;28;20026;-74
2022/06/16 09:39:24;;;;;;;8.10;3.72;;;;;;;;;;5000273;28;20034;-74
2022/06/16 09:45:02;;;;;;;9.27;3.72;;;;;;;;;;4980416;28;20041;-74
2022/06/16 09:47:33;;;;;;;5.97;3.28;;;;;;;;;;4975817;28;20034;-73
2022/06/16 09:50:28;;;;;;;9.13;4.32;;;;;;;;;;4979660;28;20085;-76
2022/06/16 09:53:32;;;;;;;8.25;3.47;;;;;;;;;;4989651;28;20057;-78
2022/06/16 09:56:16;;;;;;;5.22;3.33;;;;;;;;;;5010847;28;20044;-77
2022/06/16 09:58:46;;;;;;;5.68;4.28;;;;;;;;;;4974971;28;20299;-74
2022/06/16 10:01:16;;;;;;;7.93;4.25;;;;;;;;;;4974546;28;20053;-73
2022/06/16 10:03:57;;;;;;;10.13;4.75;;;;;;;;;;4989422;28;20081;-76
2022/06/16 10:07:07;;;;;;;4.07;3.35;;;;;;;;;;4970895;28;20033;-74
2022/06/16 10:09:42;;;;;;;8.18;3.85;;;;;;;;;;4988200;28;20039;-72
2022/06/16 10:12:31;;;;;;;7.63;3.88;;;;;;;;;;4974576;28;20033;-73
2022/06/16 10:15:41;;;;;;;8.45;3.83;;;;;;;;;;4973778;28;20034;-75
2022/06/16 10:18:10;;;;;;;7.43;4.03;;;;;;;;;;4975302;28;20026;-75
2022/06/16 10:20:37;;;;;;;10.10;4.60;;;;;;;;;;4975171;28;20112;-75
2022/06/16 10:23:38;;;;;;;7.80;5.03;;;;;;;;;;4972465;28;20037;-74
2022/06/16 10:26:07;;;;;;;8.55;5.38;;;;;;;;;;4954720;28;20039;-76
2022/06/16 10:28:38;;;;;;;8.82;5.88;;;;;;;;;;4979186;28;20124;-75
2022/06/16 10:31:06;;;;;;;6.45;5.03;;;;;;;;;;4976815;28;20065;-76
2022/06/16 10:33:35;;;;;;;7.55;5.50;;;;;;;;;;4982777;28;20030;-74
2022/06/16 10:36:07;;;;;;;9.00;5.78;;;;;;;;;;4986270;28;20041;-77
2022/06/16 10:38:44;;;;;;;5.82;4.03;;;;;;;;;;4976420;28;20043;-74
2022/06/16 10:41:31;;;;;;;7.95;4.95;;;;;;;;;;4983832;28;20034;-75
2022/06/16 10:44:00;;;;;;;6.07;4.25;;;;;;;;;;4979979;28;20504;-74
2022/06/16 10:46:44;;;;;;;8.60;3.70;;;;;;;;;;4980066;28;20037;-72
2022/06/16 10:49:17;;;;;;;6.63;4.30;;;;;;;;;;4977013;28;20030;-73
2022/06/16 10:51:52;;;;;;;16.63;5.18;;;;;;;;;;4975138;28;20406;-74
2022/06/16 10:54:30;;;;;;;8.73;4.28;;;;;;;;;;4963406;28;20057;-74
2022/06/16 10:57:32;;;;;;;13.50;5.10;;;;;;;;;;4995247;28;20034;-75
2022/06/16 11:00:12;;;;;;;9.02;4.60;;;;;;;;;;4976672;28;20046;-74
2022/06/16 11:02:55;;;;;;;6.80;4.00;;;;;;;;;;4981652;28;20036;-77
2022/06/16 11:05:20;;;;;;;8.13;3.92;;;;;;;;;;4984075;28;20497;-73
2022/06/16 11:07:46;;;;;;;6.30;4.28;;;;;;;;;;4982623;28;20038;-73
2022/06/16 11:10:29;;;;;;;5.50;4.25;;;;;;;;;;4983915;28;20332;-74
2022/06/16 11:12:55;;;;;;;10.70;5.20;;;;;;;;;;4983520;28;20141;-73
2022/06/16 11:15:29;;;;;;;6.95;4.25;;;;;;;;;;4984412;28;20125;-72
2022/06/16 11:18:03;;;;;;;4.13;3.55;;;;;;;;;;4974241;28;20030;-72
2022/06/16 11:20:48;;;;;;;7.13;3.83;;;;;;;;;;4975732;28;20034;-74
2022/06/16 11:23:42;;;;;;;4.85;3.53;;;;;;;;;;4976009;28;20453;-75
2022/06/16 11:26:14;;;;;;;6.15;4.18;;;;;;;;;;4974175;28;20581;-74
2022/06/16 11:28:43;;;;;;;9.88;4.13;;;;;;;;;;4976354;28;20181;-75
2022/06/16 11:31:15;;;;;;;8.63;4.25;;;;;;;;;;4975575;28;20463;-73
2022/06/16 11:36:48;;;;;;;7.88;3.90;;;;;;;;;;4978105;28;20045;-75
2022/06/16 11:39:25;;;;;;;7.65;4.45;;;;;;;;;;4995564;28;20723;-74
2022/06/16 11:41:54;;;;;;;7.20;3.95;;;;;;;;;;4983177;28;20036;-74
2022/06/16 11:44:41;;;;;;;4.40;3.78;;;;;;;;;;4975844;28;20031;-73
2022/06/16 11:47:25;;;;;;;5.95;4.80;;;;;;;;;;4976472;28;20092;-75
2022/06/16 11:50:11;;;;;;;5.05;4.30;;;;;;;;;;4992689;28;20033;-74
2022/06/16 11:53:08;;;;;;;5.57;4.10;;;;;;;;;;4971306;28;20042;-74
2022/06/16 11:55:51;;;;;;;6.30;4.07;;;;;;;;;;4975656;28;20192;-74
2022/06/16 11:58:29;;;;;;;16.02;5.75;;;;;;;;;;4974464;28;20113;-74
2022/06/16 12:01:19;;;;;;;6.22;4.20;;;;;;;;;;4977741;28;20513;-75
2022/06/16 12:04:00;;;;;;;7.15;4.50;;;;;;;;;;4980912;28;20057;-75
2022/06/16 12:06:48;;;;;;;6.93;4.70;;;;;;;;;;4979062;28;20034;-73
2022/06/16 12:09:37;;;;;;;13.30;5.95;;;;;;;;;;4975544;28;20110;-73
2022/06/16 12:12:16;;;;;;;7.68;4.93;;;;;;;;;;4977386;28;20743;-74
2022/06/16 12:14:53;;;;;;;6.97;4.50;;;;;;;;;;4978042;28;20088;-75
2022/06/16 12:17:27;;;;;;;10.18;5.95;;;;;;;;;;4993820;28;20225;-76
2022/06/16 12:20:19;;;;;;;6.57;4.53;;;;;;;;;;4991224;28;20081;-75
2022/06/16 12:22:57;;;;;;;14.38;4.95;;;;;;;;;;4977160;28;20537;-75
2022/06/16 12:25:29;;;;;;;6.75;4.28;;;;;;;;;;4978007;28;20073;-75
2022/06/16 12:28:25;;;;;;;7.05;4.10;;;;;;;;;;4979531;28;20037;-74
2022/06/16 12:31:19;;;;;;;11.23;4.95;;;;;;;;;;4979914;28;20042;-75
2022/06/16 12:33:57;;;;;;;9.65;3.95;;;;;;;;;;4976748;28;20048;-74
2022/06/16 12:36:54;;;;;;;6.85;4.30;;;;;;;;;;4975751;28;20109;-76
2022/06/16 12:39:35;;;;;;;7.63;4.43;;;;;;;;;;4975536;28;20068;-75
2022/06/16 12:42:12;;;;;;;7.22;4.55;;;;;;;;;;4980704;28;20034;-76
2022/06/16 12:44:53;;;;;;;8.20;4.25;;;;;;;;;;4981712;28;20513;-77
2022/06/16 12:47:30;;;;;;;4.72;4.07;;;;;;;;;;4996981;28;20395;-75
2022/06/16 12:50:16;;;;;;;7.60;4.75;;;;;;;;;;5001658;28;20462;-74
2022/06/16 12:53:11;;;;;;;7.80;4.63;;;;;;;;;;4978032;28;20644;-75
2022/06/16 12:55:47;;;;;;;8.43;4.68;;;;;;;;;;4978015;28;20220;-74
2022/06/16 12:58:31;;;;;;;8.38;3.95;;;;;;;;;;4977942;28;20030;-75
2022/06/16 13:01:14;;;;;;;10.20;4.65;;;;;;;;;;4983954;28;20418;-75
2022/06/16 13:03:45;;;;;;;8.20;5.15;;;;;;;;;;4988449;28;20121;-76
2022/06/16 13:06:12;;;;;;;5.00;3.78;;;;;;;;;;4990720;28;20106;-75
2022/06/16 13:08:43;;;;;;;7.22;4.20;;;;;;;;;;5002084;28;20105;-75
2022/06/16 13:11:15;;;;;;;6.70;3.42;;;;;;;;;;4986656;28;20125;-73
2022/06/16 13:13:47;;;;;;;6.78;3.47;;;;;;;;;;4983742;28;20345;-74
2022/06/16 13:16:18;;;;;;;7.80;4.18;;;;;;;;;;4981943;28;20070;-76
2022/06/16 13:18:50;;;;;;;7.20;4.43;;;;;;;;;;4983476;28;20030;-74
2022/06/16 13:21:32;;;;;;;9.43;4.13;;;;;;;;;;4992219;28;20474;-77
2022/06/16 13:24:26;;;;;;;7.53;4.05;;;;;;;;;;4999499;28;20086;-78
2022/06/16 13:27:11;;;;;;;13.55;4.22;;;;;;;;;;5019967;28;20057;-77
2022/06/16 13:29:52;;;;;;;6.20;4.45;;;;;;;;;;4996190;28;20076;-78
2022/06/16 13:32:36;;;;;;;;;;;;;;;;;;4992158;28;20759;-79
2022/06/16 13:35:14;;;;;;;9.73;4.35;;;;;;;;;;4989355;28;19935;-77
2022/06/16 13:38:10;;;;;;;7.38;4.28;;;;;;;;;;5005315;28;20026;-76
2022/06/16 13:40:44;;;;;;;9.18;4.80;;;;;;;;;;4995852;28;20042;-75
2022/06/16 13:43:19;;;;;;;7.53;5.05;;;;;;;;;;5008939;28;20112;-73
2022/06/16 13:46:12;;;;;;;10.48;4.50;;;;;;;;;;5011646;28;20150;-74
2022/06/16 13:48:51;;;;;;;7.93;4.20;;;;;;;;;;5006369;28;20052;-76
2022/06/16 13:51:36;;;;;;;7.68;4.45;;;;;;;;;;4995607;28;20029;-76
2022/06/16 13:54:04;;;;;;;6.78;4.40;;;;;;;;;;5009024;28;20266;-75
2022/06/16 13:56:36;;;;;;;8.13;3.92;;;;;;;;;;4979175;28;20316;-77
2022/06/16 13:59:10;;;;;;;8.60;4.07;;;;;;;;;;4966971;28;20034;-77
2022/06/16 14:02:24;;;;;;;10.23;4.57;;;;;;;;;;5008777;28;20312;-76
2022/06/16 14:05:06;;;;;;;4.25;3.63;;;;;;;;;;5006205;28;20110;-77
2022/06/16 14:07:51;;;;;;;6.50;3.30;;;;;;;;;;5007846;28;20104;-75
2022/06/16 14:10:36;;;;;;;8.43;4.13;;;;;;;;;;4995919;28;20159;-76
2022/06/16 14:13:27;;;;;;;5.78;4.30;;;;;;;;;;4994718;28;20402;-77
2022/06/16 14:15:55;;;;;;;5.80;4.78;;;;;;;;;;5010174;28;20044;-76
2022/06/16 14:19:04;;;;;;;6.97;4.45;;;;;;;;;;5001329;28;20030;-77
2022/06/16 14:21:38;;;;;;;8.27;4.50;;;;;;;;;;4989225;28;20030;-76
2022/06/16 14:24:44;;;;;;;9.45;4.57;;;;;;;;;;4997057;28;20026;-75
2022/06/16 14:27:16;;;;;;;7.18;4.00;;;;;;;;;;5002644;28;20094;-79
2022/06/16 14:29:46;;;;;;;11.82;8.15;;;;;;;;;;5006466;28;20045;-77
2022/06/16 14:32:22;;;;;;;10.85;5.55;;;;;;;;;;4994676;28;20091;-75
2022/06/16 14:35:32;;;;;;;5.68;4.68;;;;;;;;;;4994376;28;20026;-77
2022/06/16 14:38:03;;;;;;;8.17;4.73;;;;;;;;;;5007884;28;20041;-76
2022/06/16 14:40:44;;;;;;;10.60;4.90;;;;;;;;;;5001740;28;20066;-75
2022/06/16 14:43:28;;;;;;;10.18;5.07;;;;;;;;;;4978438;28;20034;-77
2022/06/16 14:46:12;;;;;;;14.57;5.15;;;;;;;;;;4975356;28;20120;-77
2022/06/16 14:48:41;;;;;;;9.32;4.85;;;;;;;;;;4980758;28;20030;-76
2022/06/16 14:51:29;;;;;;;8.27;4.32;;;;;;;;;;4981591;28;20030;-76
2022/06/16 14:54:14;;;;;;;14.95;5.95;;;;;;;;;;4989903;28;20364;-76
2022/06/16 14:56:48;;;;;;;28.05;7.78;;;;;;;;;;4988324;28;20069;-77
2022/06/16 14:59:20;;;;;;;8.98;5.07;;;;;;;;;;5008588;28;20460;-75
2022/06/16 15:01:53;;;;;;;7.88;4.82;;;;;;;;;;5016420;28;20030;-76
2022/06/16 15:04:24;;;;;;;14.93;5.45;;;;;;;;;;5012549;28;20030;-77
2022/06/16 15:06:51;;;;;;;;;;;;;;;;;;5010084;28;20036;-79
2022/06/16 15:09:20;;;;;;;11.13;4.78;;;;;;;;;;4989865;28;20000;-77
2022/06/16 15:11:48;;;;;;;9.55;5.22;;;;;;;;;;4987748;28;20094;-74
2022/06/16 15:14:17;;;;;;;8.82;4.55;;;;;;;;;;4995708;28;20257;-76
2022/06/16 15:19:35;;;;;;;6.88;4.60;;;;;;;;;;4980766;28;20053;-78
2022/06/16 15:22:01;;;;;;;6.22;4.30;;;;;;;;;;5002483;28;20454;-76
2022/06/16 15:24:51;;;;;;;14.40;4.55;;;;;;;;;;4998731;28;20057;-76
2022/06/16 15:27:41;;;;;;;7.97;4.35;;;;;;;;;;4990708;28;20128;-77
2022/06/16 15:30:20;;;;;;;5.10;3.53;;;;;;;;;;4990010;28;20046;-76
2022/06/16 15:38:18;;;;;;;6.28;3.58;;;;;;;;;;4995097;28;20036;-77
2022/06/16 15:40:47;;;;;;;4.80;3.70;;;;;;;;;;5009547;28;20034;-77
2022/06/16 15:43:19;;;;;;;6.22;3.50;;;;;;;;;;4993881;28;20479;-76
2022/06/16 15:45:59;;;;;;;5.82;3.75;;;;;;;;;;4993007;28;20026;-77
2022/06/16 15:48:28;;;;;;;5.25;3.60;;;;;;;;;;4994498;28;20027;-77
2022/06/16 15:50:56;;;;;;;5.95;3.58;;;;;;;;;;4994945;28;20545;-75
2022/06/16 15:53:25;;;;;;;7.57;3.50;;;;;;;;;;4994865;28;20034;-76
2022/06/16 15:55:53;;;;;;;7.07;3.70;;;;;;;;;;4993010;28;20100;-76
2022/06/16 15:58:22;;;;;;;8.57;4.00;;;;;;;;;;4993400;28;20506;-80
2022/06/16 16:00:50;;;;;;;8.75;3.80;;;;;;;;;;4993268;28;20066;-75